sensor_id;sensor_type;location;lat;lon;timestamp;P1;durP1;ratioP1;P2;durP2;ratioP2
37851;SDS011;23691;52.486;4.650;2023-12-28T00:00:19;31.35;;;5.35;;
37851;SDS011;23691;52.486;4.650;2023-12-28T00:02:46;42.95;;;5.65;;
37851;SDS011;23691;52.486;4.650;2023-12-28T00:05:11;32.63;;;5.85;;
37851;SDS011;23691;52.486;4.650;2023-12-28T00:07:37;36.10;;;6.00;;
37851;SDS011;23691;52.486;4.650;2023-12-28T00:10:03;31.73;;;5.75;;
37851;SDS011;23691;52.486;4.650;2023-12-28T00:12:28;34.47;;;6.03;;
37851;SDS011;23691;52.486;4.650;2023-12-28T00:14:54;30.48;;;5.25;;
37851;SDS011;23691;52.486;4.650;2023-12-28T00:17:19;37.42;;;5.45;;
37851;SDS011;23691;52.486;4.650;2023-12-28T00:19:44;29.73;;;5.18;;
37851;SDS011;23691;52.486;4.650;2023-12-28T00:22:10;33.47;;;5.72;;
37851;SDS011;23691;52.486;4.650;2023-12-28T00:24:36;26.75;;;5.03;;
37851;SDS011;23691;52.486;4.650;2023-12-28T00:27:01;30.85;;;5.88;;
37851;SDS011;23691;52.486;4.650;2023-12-28T00:29:26;34.50;;;5.78;;
37851;SDS011;23691;52.486;4.650;2023-12-28T00:31:53;38.15;;;5.85;;
37851;SDS011;23691;52.486;4.650;2023-12-28T00:34:19;33.97;;;4.88;;
37851;SDS011;23691;52.486;4.650;2023-12-28T00:39:12;37.72;;;5.55;;
37851;SDS011;23691;52.486;4.650;2023-12-28T00:41:37;32.85;;;5.88;;
37851;SDS011;23691;52.486;4.650;2023-12-28T00:44:03;27.13;;;4.82;;
37851;SDS011;23691;52.486;4.650;2023-12-28T00:46:33;36.78;;;5.68;;
37851;SDS011;23691;52.486;4.650;2023-12-28T00:49:02;34.50;;;5.65;;
37851;SDS011;23691;52.486;4.650;2023-12-28T00:51:27;42.10;;;5.47;;
37851;SDS011;23691;52.486;4.650;2023-12-28T00:53:53;32.08;;;5.60;;
37851;SDS011;23691;52.486;4.650;2023-12-28T00:56:20;24.63;;;4.35;;
37851;SDS011;23691;52.486;4.650;2023-12-28T00:58:46;35.53;;;5.07;;
37851;SDS011;23691;52.486;4.650;2023-12-28T01:01:12;29.88;;;4.85;;
37851;SDS011;23691;52.486;4.650;2023-12-28T01:03:37;29.33;;;4.75;;
37851;SDS011;23691;52.486;4.650;2023-12-28T01:06:04;30.08;;;5.05;;
37851;SDS011;23691;52.486;4.650;2023-12-28T01:08:32;30.15;;;4.88;;
37851;SDS011;23691;52.486;4.650;2023-12-28T01:10:59;31.33;;;4.47;;
37851;SDS011;23691;52.486;4.650;2023-12-28T01:13:25;29.27;;;4.63;;
37851;SDS011;23691;52.486;4.650;2023-12-28T01:15:50;35.83;;;5.57;;
37851;SDS011;23691;52.486;4.650;2023-12-28T01:18:16;28.70;;;4.72;;
37851;SDS011;23691;52.486;4.650;2023-12-28T01:20:43;37.67;;;4.88;;
37851;SDS011;23691;52.486;4.650;2023-12-28T01:23:09;29.55;;;4.70;;
37851;SDS011;23691;52.486;4.650;2023-12-28T01:25:34;30.90;;;4.78;;
37851;SDS011;23691;52.486;4.650;2023-12-28T01:28:00;26.80;;;4.30;;
37851;SDS011;23691;52.486;4.650;2023-12-28T01:30:26;30.05;;;5.07;;
37851;SDS011;23691;52.486;4.650;2023-12-28T01:32:51;36.25;;;4.90;;
37851;SDS011;23691;52.486;4.650;2023-12-28T01:35:17;25.42;;;3.72;;
37851;SDS011;23691;52.486;4.650;2023-12-28T01:37:42;28.52;;;4.57;;
37851;SDS011;23691;52.486;4.650;2023-12-28T01:40:08;25.70;;;3.85;;
37851;SDS011;23691;52.486;4.650;2023-12-28T01:42:34;30.33;;;4.43;;
37851;SDS011;23691;52.486;4.650;2023-12-28T01:45:00;24.02;;;3.83;;
37851;SDS011;23691;52.486;4.650;2023-12-28T01:47:26;26.33;;;4.07;;
37851;SDS011;23691;52.486;4.650;2023-12-28T01:49:53;24.30;;;4.18;;
37851;SDS011;23691;52.486;4.650;2023-12-28T01:52:19;26.00;;;4.10;;
37851;SDS011;23691;52.486;4.650;2023-12-28T01:54:45;21.35;;;3.40;;
37851;SDS011;23691;52.486;4.650;2023-12-28T01:57:10;21.83;;;3.50;;
37851;SDS011;23691;52.486;4.650;2023-12-28T01:59:37;31.67;;;4.38;;
37851;SDS011;23691;52.486;4.650;2023-12-28T02:02:03;21.17;;;3.65;;
37851;SDS011;23691;52.486;4.650;2023-12-28T02:04:28;24.15;;;3.53;;
37851;SDS011;23691;52.486;4.650;2023-12-28T02:06:57;25.73;;;3.80;;
37851;SDS011;23691;52.486;4.650;2023-12-28T02:09:24;29.60;;;4.20;;
37851;SDS011;23691;52.486;4.650;2023-12-28T02:11:50;24.35;;;3.78;;
37851;SDS011;23691;52.486;4.650;2023-12-28T02:14:16;25.17;;;3.58;;
37851;SDS011;23691;52.486;4.650;2023-12-28T02:16:46;20.60;;;3.72;;
37851;SDS011;23691;52.486;4.650;2023-12-28T02:19:22;25.20;;;3.60;;
37851;SDS011;23691;52.486;4.650;2023-12-28T02:21:53;22.90;;;3.70;;
37851;SDS011;23691;52.486;4.650;2023-12-28T02:24:19;26.67;;;3.85;;
37851;SDS011;23691;52.486;4.650;2023-12-28T02:26:44;20.60;;;3.22;;
37851;SDS011;23691;52.486;4.650;2023-12-28T02:29:10;28.77;;;4.65;;
37851;SDS011;23691;52.486;4.650;2023-12-28T02:31:39;25.77;;;3.72;;
37851;SDS011;23691;52.486;4.650;2023-12-28T02:34:22;29.63;;;3.85;;
37851;SDS011;23691;52.486;4.650;2023-12-28T02:36:54;27.23;;;4.75;;
37851;SDS011;23691;52.486;4.650;2023-12-28T02:39:21;22.27;;;4.30;;
37851;SDS011;23691;52.486;4.650;2023-12-28T02:41:49;27.10;;;4.07;;
37851;SDS011;23691;52.486;4.650;2023-12-28T02:44:15;32.25;;;4.35;;
37851;SDS011;23691;52.486;4.650;2023-12-28T02:46:40;24.65;;;3.65;;
37851;SDS011;23691;52.486;4.650;2023-12-28T02:49:06;26.23;;;4.38;;
37851;SDS011;23691;52.486;4.650;2023-12-28T02:51:31;32.25;;;4.57;;
37851;SDS011;23691;52.486;4.650;2023-12-28T02:53:57;33.60;;;4.45;;
37851;SDS011;23691;52.486;4.650;2023-12-28T02:56:22;27.17;;;4.40;;
37851;SDS011;23691;52.486;4.650;2023-12-28T02:58:48;29.70;;;4.63;;
37851;SDS011;23691;52.486;4.650;2023-12-28T03:01:13;26.35;;;3.85;;
37851;SDS011;23691;52.486;4.650;2023-12-28T03:03:38;31.10;;;4.07;;
37851;SDS011;23691;52.486;4.650;2023-12-28T03:06:04;27.80;;;4.00;;
37851;SDS011;23691;52.486;4.650;2023-12-28T03:08:30;32.10;;;4.70;;
37851;SDS011;23691;52.486;4.650;2023-12-28T03:10:55;27.52;;;4.22;;
37851;SDS011;23691;52.486;4.650;2023-12-28T03:13:21;27.13;;;4.15;;
37851;SDS011;23691;52.486;4.650;2023-12-28T03:15:46;26.67;;;3.83;;
37851;SDS011;23691;52.486;4.650;2023-12-28T03:18:12;26.15;;;3.85;;
37851;SDS011;23691;52.486;4.650;2023-12-28T03:20:37;31.30;;;4.72;;
37851;SDS011;23691;52.486;4.650;2023-12-28T03:23:03;20.30;;;3.30;;
37851;SDS011;23691;52.486;4.650;2023-12-28T03:25:28;24.00;;;4.03;;
37851;SDS011;23691;52.486;4.650;2023-12-28T03:27:54;29.45;;;4.20;;
37851;SDS011;23691;52.486;4.650;2023-12-28T03:30:20;32.33;;;4.13;;
37851;SDS011;23691;52.486;4.650;2023-12-28T03:32:46;33.10;;;3.80;;
37851;SDS011;23691;52.486;4.650;2023-12-28T03:35:11;29.30;;;4.47;;
37851;SDS011;23691;52.486;4.650;2023-12-28T03:37:36;35.38;;;4.90;;
37851;SDS011;23691;52.486;4.650;2023-12-28T03:40:02;25.35;;;4.43;;
37851;SDS011;23691;52.486;4.650;2023-12-28T03:42:27;30.40;;;4.90;;
37851;SDS011;23691;52.486;4.650;2023-12-28T03:44:53;27.75;;;5.00;;
37851;SDS011;23691;52.486;4.650;2023-12-28T03:47:19;23.08;;;3.92;;
37851;SDS011;23691;52.486;4.650;2023-12-28T03:49:44;26.83;;;4.38;;
37851;SDS011;23691;52.486;4.650;2023-12-28T03:52:10;32.25;;;4.88;;
37851;SDS011;23691;52.486;4.650;2023-12-28T03:54:35;25.05;;;3.78;;
37851;SDS011;23691;52.486;4.650;2023-12-28T03:57:00;30.40;;;4.65;;
37851;SDS011;23691;52.486;4.650;2023-12-28T03:59:28;28.52;;;4.20;;
37851;SDS011;23691;52.486;4.650;2023-12-28T04:01:56;30.25;;;4.78;;
37851;SDS011;23691;52.486;4.650;2023-12-28T04:04:22;34.38;;;4.93;;
37851;SDS011;23691;52.486;4.650;2023-12-28T04:06:47;28.83;;;4.68;;
37851;SDS011;23691;52.486;4.650;2023-12-28T04:09:12;27.80;;;4.68;;
37851;SDS011;23691;52.486;4.650;2023-12-28T04:11:38;29.83;;;4.70;;
37851;SDS011;23691;52.486;4.650;2023-12-28T04:14:03;27.45;;;4.45;;
37851;SDS011;23691;52.486;4.650;2023-12-28T04:16:29;27.90;;;4.22;;
37851;SDS011;23691;52.486;4.650;2023-12-28T04:18:54;31.45;;;5.10;;
37851;SDS011;23691;52.486;4.650;2023-12-28T04:21:19;31.55;;;4.30;;
37851;SDS011;23691;52.486;4.650;2023-12-28T04:23:45;30.02;;;4.47;;
37851;SDS011;23691;52.486;4.650;2023-12-28T04:26:10;32.28;;;5.03;;
37851;SDS011;23691;52.486;4.650;2023-12-28T04:28:36;28.58;;;4.65;;
37851;SDS011;23691;52.486;4.650;2023-12-28T04:31:02;27.85;;;4.93;;
37851;SDS011;23691;52.486;4.650;2023-12-28T04:33:30;38.65;;;5.07;;
37851;SDS011;23691;52.486;4.650;2023-12-28T04:35:57;30.17;;;4.63;;
37851;SDS011;23691;52.486;4.650;2023-12-28T04:38:22;31.92;;;4.90;;
37851;SDS011;23691;52.486;4.650;2023-12-28T04:40:48;36.80;;;5.53;;
37851;SDS011;23691;52.486;4.650;2023-12-28T04:43:13;37.08;;;4.80;;
37851;SDS011;23691;52.486;4.650;2023-12-28T04:45:38;33.63;;;5.10;;
37851;SDS011;23691;52.486;4.650;2023-12-28T04:48:04;30.13;;;4.63;;
37851;SDS011;23691;52.486;4.650;2023-12-28T04:50:29;28.38;;;4.45;;
37851;SDS011;23691;52.486;4.650;2023-12-28T04:52:56;31.33;;;4.60;;
37851;SDS011;23691;52.486;4.650;2023-12-28T04:55:21;38.33;;;5.10;;
37851;SDS011;23691;52.486;4.650;2023-12-28T04:57:49;35.60;;;4.82;;
37851;SDS011;23691;52.486;4.650;2023-12-28T05:00:15;40.22;;;5.45;;
37851;SDS011;23691;52.486;4.650;2023-12-28T05:02:42;31.30;;;5.03;;
37851;SDS011;23691;52.486;4.650;2023-12-28T05:05:07;37.50;;;5.05;;
37851;SDS011;23691;52.486;4.650;2023-12-28T05:07:35;30.80;;;5.32;;
37851;SDS011;23691;52.486;4.650;2023-12-28T05:10:00;35.25;;;4.80;;
37851;SDS011;23691;52.486;4.650;2023-12-28T05:12:25;33.28;;;5.20;;
37851;SDS011;23691;52.486;4.650;2023-12-28T05:14:51;38.25;;;6.00;;
37851;SDS011;23691;52.486;4.650;2023-12-28T05:17:16;38.30;;;5.90;;
37851;SDS011;23691;52.486;4.650;2023-12-28T05:19:42;33.35;;;5.28;;
37851;SDS011;23691;52.486;4.650;2023-12-28T05:22:07;30.92;;;5.18;;
37851;SDS011;23691;52.486;4.650;2023-12-28T05:24:36;38.40;;;6.07;;
37851;SDS011;23691;52.486;4.650;2023-12-28T05:27:01;32.22;;;4.95;;
37851;SDS011;23691;52.486;4.650;2023-12-28T05:29:31;46.37;;;5.90;;
37851;SDS011;23691;52.486;4.650;2023-12-28T05:31:56;36.70;;;5.72;;
37851;SDS011;23691;52.486;4.650;2023-12-28T05:34:22;38.92;;;5.95;;
37851;SDS011;23691;52.486;4.650;2023-12-28T05:36:47;34.72;;;6.05;;
37851;SDS011;23691;52.486;4.650;2023-12-28T05:39:13;46.28;;;6.35;;
37851;SDS011;23691;52.486;4.650;2023-12-28T05:41:38;34.28;;;5.22;;
37851;SDS011;23691;52.486;4.650;2023-12-28T05:44:07;36.80;;;6.40;;
37851;SDS011;23691;52.486;4.650;2023-12-28T05:46:33;36.80;;;6.20;;
37851;SDS011;23691;52.486;4.650;2023-12-28T05:48:59;40.30;;;6.07;;
37851;SDS011;23691;52.486;4.650;2023-12-28T05:51:26;46.55;;;6.18;;
37851;SDS011;23691;52.486;4.650;2023-12-28T05:53:52;39.95;;;6.55;;
37851;SDS011;23691;52.486;4.650;2023-12-28T05:56:17;43.08;;;5.97;;
37851;SDS011;23691;52.486;4.650;2023-12-28T05:58:43;44.33;;;6.30;;
37851;SDS011;23691;52.486;4.650;2023-12-28T06:01:08;52.67;;;6.50;;
37851;SDS011;23691;52.486;4.650;2023-12-28T06:03:33;42.10;;;6.72;;
37851;SDS011;23691;52.486;4.650;2023-12-28T06:05:59;34.28;;;6.03;;
37851;SDS011;23691;52.486;4.650;2023-12-28T06:08:24;45.38;;;6.57;;
37851;SDS011;23691;52.486;4.650;2023-12-28T06:10:50;42.08;;;6.35;;
37851;SDS011;23691;52.486;4.650;2023-12-28T06:13:16;45.42;;;6.60;;
37851;SDS011;23691;52.486;4.650;2023-12-28T06:15:41;47.22;;;6.70;;
37851;SDS011;23691;52.486;4.650;2023-12-28T06:18:09;50.35;;;7.45;;
37851;SDS011;23691;52.486;4.650;2023-12-28T06:20:34;47.33;;;7.80;;
37851;SDS011;23691;52.486;4.650;2023-12-28T06:23:03;50.80;;;7.18;;
37851;SDS011;23691;52.486;4.650;2023-12-28T06:25:29;46.20;;;7.60;;
37851;SDS011;23691;52.486;4.650;2023-12-28T06:27:54;49.75;;;7.57;;
37851;SDS011;23691;52.486;4.650;2023-12-28T06:30:20;43.03;;;6.65;;
37851;SDS011;23691;52.486;4.650;2023-12-28T06:32:47;42.42;;;7.00;;
37851;SDS011;23691;52.486;4.650;2023-12-28T06:35:13;48.97;;;7.68;;
37851;SDS011;23691;52.486;4.650;2023-12-28T06:37:38;46.83;;;7.72;;
37851;SDS011;23691;52.486;4.650;2023-12-28T06:40:04;51.00;;;8.13;;
37851;SDS011;23691;52.486;4.650;2023-12-28T06:42:30;55.25;;;7.82;;
37851;SDS011;23691;52.486;4.650;2023-12-28T06:44:55;48.10;;;7.63;;
37851;SDS011;23691;52.486;4.650;2023-12-28T06:47:20;59.35;;;8.63;;
37851;SDS011;23691;52.486;4.650;2023-12-28T06:49:46;54.58;;;7.95;;
37851;SDS011;23691;52.486;4.650;2023-12-28T06:52:14;50.28;;;8.60;;
37851;SDS011;23691;52.486;4.650;2023-12-28T06:54:40;52.92;;;8.38;;
37851;SDS011;23691;52.486;4.650;2023-12-28T06:57:08;50.78;;;8.10;;
37851;SDS011;23691;52.486;4.650;2023-12-28T06:59:33;50.25;;;8.30;;
37851;SDS011;23691;52.486;4.650;2023-12-28T07:01:58;54.80;;;7.88;;
37851;SDS011;23691;52.486;4.650;2023-12-28T07:04:23;51.38;;;8.13;;
37851;SDS011;23691;52.486;4.650;2023-12-28T07:06:51;58.15;;;7.93;;
37851;SDS011;23691;52.486;4.650;2023-12-28T07:09:16;42.67;;;7.32;;
37851;SDS011;23691;52.486;4.650;2023-12-28T07:11:42;49.53;;;7.45;;
37851;SDS011;23691;52.486;4.650;2023-12-28T07:14:07;56.45;;;7.95;;
37851;SDS011;23691;52.486;4.650;2023-12-28T07:16:33;58.35;;;8.13;;
37851;SDS011;23691;52.486;4.650;2023-12-28T07:18:58;59.17;;;8.13;;
37851;SDS011;23691;52.486;4.650;2023-12-28T07:21:23;59.38;;;8.10;;
37851;SDS011;23691;52.486;4.650;2023-12-28T07:23:49;53.58;;;8.98;;
37851;SDS011;23691;52.486;4.650;2023-12-28T07:26:15;55.38;;;8.40;;
37851;SDS011;23691;52.486;4.650;2023-12-28T07:28:41;55.97;;;7.93;;
37851;SDS011;23691;52.486;4.650;2023-12-28T07:31:10;49.63;;;8.32;;
37851;SDS011;23691;52.486;4.650;2023-12-28T07:33:36;52.00;;;8.00;;
37851;SDS011;23691;52.486;4.650;2023-12-28T07:36:01;51.28;;;8.52;;
37851;SDS011;23691;52.486;4.650;2023-12-28T07:38:31;49.25;;;7.60;;
37851;SDS011;23691;52.486;4.650;2023-12-28T07:40:56;58.80;;;8.68;;
37851;SDS011;23691;52.486;4.650;2023-12-28T07:43:21;50.88;;;8.07;;
37851;SDS011;23691;52.486;4.650;2023-12-28T07:45:47;48.42;;;7.30;;
37851;SDS011;23691;52.486;4.650;2023-12-28T07:48:12;48.67;;;8.32;;
37851;SDS011;23691;52.486;4.650;2023-12-28T07:50:38;53.45;;;8.20;;
37851;SDS011;23691;52.486;4.650;2023-12-28T07:53:03;45.67;;;7.78;;
37851;SDS011;23691;52.486;4.650;2023-12-28T07:55:29;51.90;;;8.07;;
37851;SDS011;23691;52.486;4.650;2023-12-28T07:57:54;46.03;;;7.75;;
37851;SDS011;23691;52.486;4.650;2023-12-28T08:00:19;52.95;;;7.78;;
37851;SDS011;23691;52.486;4.650;2023-12-28T08:02:45;45.88;;;6.82;;
37851;SDS011;23691;52.486;4.650;2023-12-28T08:05:11;52.97;;;7.93;;
37851;SDS011;23691;52.486;4.650;2023-12-28T08:07:36;51.97;;;7.72;;
37851;SDS011;23691;52.486;4.650;2023-12-28T08:10:02;48.38;;;7.65;;
37851;SDS011;23691;52.486;4.650;2023-12-28T08:12:28;43.25;;;7.30;;
37851;SDS011;23691;52.486;4.650;2023-12-28T08:14:54;38.95;;;6.85;;
37851;SDS011;23691;52.486;4.650;2023-12-28T08:17:20;41.95;;;6.32;;
37851;SDS011;23691;52.486;4.650;2023-12-28T08:19:45;41.17;;;7.05;;
37851;SDS011;23691;52.486;4.650;2023-12-28T08:22:10;45.17;;;6.03;;
37851;SDS011;23691;52.486;4.650;2023-12-28T08:24:36;40.20;;;6.90;;
37851;SDS011;23691;52.486;4.650;2023-12-28T08:27:01;48.05;;;6.82;;
37851;SDS011;23691;52.486;4.650;2023-12-28T08:29:28;41.13;;;6.70;;
37851;SDS011;23691;52.486;4.650;2023-12-28T08:31:53;42.25;;;6.90;;
37851;SDS011;23691;52.486;4.650;2023-12-28T08:34:20;43.85;;;6.25;;
37851;SDS011;23691;52.486;4.650;2023-12-28T08:36:46;49.15;;;6.60;;
37851;SDS011;23691;52.486;4.650;2023-12-28T08:39:11;49.20;;;7.28;;
37851;SDS011;23691;52.486;4.650;2023-12-28T08:41:36;48.20;;;6.72;;
37851;SDS011;23691;52.486;4.650;2023-12-28T08:44:02;46.60;;;7.30;;
37851;SDS011;23691;52.486;4.650;2023-12-28T08:46:27;45.20;;;6.70;;
37851;SDS011;23691;52.486;4.650;2023-12-28T08:48:53;36.42;;;6.10;;
37851;SDS011;23691;52.486;4.650;2023-12-28T08:51:19;39.88;;;6.63;;
37851;SDS011;23691;52.486;4.650;2023-12-28T08:53:45;41.72;;;6.32;;
37851;SDS011;23691;52.486;4.650;2023-12-28T08:56:17;44.50;;;6.43;;
37851;SDS011;23691;52.486;4.650;2023-12-28T08:58:44;42.63;;;6.30;;
37851;SDS011;23691;52.486;4.650;2023-12-28T09:01:21;44.25;;;6.22;;
37851;SDS011;23691;52.486;4.650;2023-12-28T09:03:52;45.90;;;7.10;;
37851;SDS011;23691;52.486;4.650;2023-12-28T09:06:18;41.75;;;6.25;;
37851;SDS011;23691;52.486;4.650;2023-12-28T09:08:46;43.67;;;6.70;;
37851;SDS011;23691;52.486;4.650;2023-12-28T09:11:18;43.38;;;5.88;;
37851;SDS011;23691;52.486;4.650;2023-12-28T09:13:44;38.30;;;6.25;;
37851;SDS011;23691;52.486;4.650;2023-12-28T09:16:11;43.28;;;6.53;;
37851;SDS011;23691;52.486;4.650;2023-12-28T09:18:38;40.92;;;6.65;;
37851;SDS011;23691;52.486;4.650;2023-12-28T09:21:04;41.05;;;6.53;;
37851;SDS011;23691;52.486;4.650;2023-12-28T09:23:31;40.50;;;6.20;;
37851;SDS011;23691;52.486;4.650;2023-12-28T09:26:00;43.67;;;6.97;;
37851;SDS011;23691;52.486;4.650;2023-12-28T09:28:28;51.95;;;6.40;;
37851;SDS011;23691;52.486;4.650;2023-12-28T09:30:54;44.63;;;5.38;;
37851;SDS011;23691;52.486;4.650;2023-12-28T09:33:19;40.88;;;6.22;;
37851;SDS011;23691;52.486;4.650;2023-12-28T09:35:44;38.90;;;6.40;;
37851;SDS011;23691;52.486;4.650;2023-12-28T09:38:10;39.30;;;6.40;;
37851;SDS011;23691;52.486;4.650;2023-12-28T09:40:35;46.45;;;6.15;;
37851;SDS011;23691;52.486;4.650;2023-12-28T09:43:09;40.20;;;6.28;;
37851;SDS011;23691;52.486;4.650;2023-12-28T09:45:39;48.58;;;6.50;;
37851;SDS011;23691;52.486;4.650;2023-12-28T09:48:05;36.55;;;6.93;;
37851;SDS011;23691;52.486;4.650;2023-12-28T09:50:31;39.78;;;6.10;;
37851;SDS011;23691;52.486;4.650;2023-12-28T09:52:57;40.17;;;7.28;;
37851;SDS011;23691;52.486;4.650;2023-12-28T09:55:22;37.22;;;5.88;;
37851;SDS011;23691;52.486;4.650;2023-12-28T09:57:50;36.22;;;6.47;;
37851;SDS011;23691;52.486;4.650;2023-12-28T10:00:16;38.13;;;5.97;;
37851;SDS011;23691;52.486;4.650;2023-12-28T10:02:43;37.47;;;5.88;;
37851;SDS011;23691;52.486;4.650;2023-12-28T10:05:12;39.88;;;6.55;;
37851;SDS011;23691;52.486;4.650;2023-12-28T10:07:42;41.42;;;6.20;;
37851;SDS011;23691;52.486;4.650;2023-12-28T10:10:08;38.60;;;6.20;;
37851;SDS011;23691;52.486;4.650;2023-12-28T10:12:34;34.63;;;5.65;;
37851;SDS011;23691;52.486;4.650;2023-12-28T10:15:00;39.78;;;5.82;;
37851;SDS011;23691;52.486;4.650;2023-12-28T10:17:25;35.75;;;5.75;;
37851;SDS011;23691;52.486;4.650;2023-12-28T10:19:52;37.88;;;6.35;;
37851;SDS011;23691;52.486;4.650;2023-12-28T10:22:17;43.38;;;6.85;;
37851;SDS011;23691;52.486;4.650;2023-12-28T10:24:43;46.08;;;6.30;;
37851;SDS011;23691;52.486;4.650;2023-12-28T10:27:09;40.75;;;6.63;;
37851;SDS011;23691;52.486;4.650;2023-12-28T10:29:34;34.83;;;6.13;;
37851;SDS011;23691;52.486;4.650;2023-12-28T10:32:00;42.08;;;7.30;;
37851;SDS011;23691;52.486;4.650;2023-12-28T10:34:25;41.08;;;6.30;;
37851;SDS011;23691;52.486;4.650;2023-12-28T10:36:51;38.95;;;5.75;;
37851;SDS011;23691;52.486;4.650;2023-12-28T10:39:18;43.05;;;6.57;;
37851;SDS011;23691;52.486;4.650;2023-12-28T10:41:44;38.97;;;6.75;;
37851;SDS011;23691;52.486;4.650;2023-12-28T10:44:16;45.25;;;6.05;;
37851;SDS011;23691;52.486;4.650;2023-12-28T10:46:44;37.85;;;6.43;;
37851;SDS011;23691;52.486;4.650;2023-12-28T10:51:41;47.75;;;7.63;;
37851;SDS011;23691;52.486;4.650;2023-12-28T10:54:44;45.67;;;7.35;;
37851;SDS011;23691;52.486;4.650;2023-12-28T10:57:32;55.20;;;7.47;;
37851;SDS011;23691;52.486;4.650;2023-12-28T11:02:38;44.00;;;7.00;;
37851;SDS011;23691;52.486;4.650;2023-12-28T11:05:05;43.22;;;6.60;;
37851;SDS011;23691;52.486;4.650;2023-12-28T11:07:32;43.58;;;6.53;;
37851;SDS011;23691;52.486;4.650;2023-12-28T11:10:00;47.35;;;6.97;;
37851;SDS011;23691;52.486;4.650;2023-12-28T11:12:26;43.58;;;6.93;;
37851;SDS011;23691;52.486;4.650;2023-12-28T11:14:53;39.58;;;6.55;;
37851;SDS011;23691;52.486;4.650;2023-12-28T11:17:19;36.13;;;6.47;;
37851;SDS011;23691;52.486;4.650;2023-12-28T11:19:45;42.70;;;7.07;;
37851;SDS011;23691;52.486;4.650;2023-12-28T11:22:12;41.08;;;6.50;;
37851;SDS011;23691;52.486;4.650;2023-12-28T11:24:38;40.72;;;6.55;;
37851;SDS011;23691;52.486;4.650;2023-12-28T11:27:04;39.85;;;6.03;;
37851;SDS011;23691;52.486;4.650;2023-12-28T11:29:30;37.88;;;5.93;;
37851;SDS011;23691;52.486;4.650;2023-12-28T11:31:58;39.17;;;5.80;;
37851;SDS011;23691;52.486;4.650;2023-12-28T11:34:24;38.97;;;6.18;;
37851;SDS011;23691;52.486;4.650;2023-12-28T11:36:53;35.47;;;6.43;;
37851;SDS011;23691;52.486;4.650;2023-12-28T11:39:29;44.00;;;6.43;;
37851;SDS011;23691;52.486;4.650;2023-12-28T11:42:08;35.92;;;5.93;;
37851;SDS011;23691;52.486;4.650;2023-12-28T11:44:38;40.47;;;6.55;;
37851;SDS011;23691;52.486;4.650;2023-12-28T11:47:16;39.67;;;6.25;;
37851;SDS011;23691;52.486;4.650;2023-12-28T11:49:45;39.20;;;5.95;;
37851;SDS011;23691;52.486;4.650;2023-12-28T11:52:21;41.38;;;6.32;;
37851;SDS011;23691;52.486;4.650;2023-12-28T11:54:48;38.17;;;6.10;;
37851;SDS011;23691;52.486;4.650;2023-12-28T11:57:15;35.72;;;5.70;;
37851;SDS011;23691;52.486;4.650;2023-12-28T11:59:40;46.20;;;6.95;;
37851;SDS011;23691;52.486;4.650;2023-12-28T12:02:06;40.90;;;6.60;;
37851;SDS011;23691;52.486;4.650;2023-12-28T12:04:33;41.75;;;6.60;;
37851;SDS011;23691;52.486;4.650;2023-12-28T12:07:02;38.92;;;5.97;;
37851;SDS011;23691;52.486;4.650;2023-12-28T12:09:31;41.42;;;6.00;;
37851;SDS011;23691;52.486;4.650;2023-12-28T12:12:03;37.00;;;6.15;;
37851;SDS011;23691;52.486;4.650;2023-12-28T12:14:29;33.10;;;6.25;;
37851;SDS011;23691;52.486;4.650;2023-12-28T12:16:58;41.42;;;5.90;;
37851;SDS011;23691;52.486;4.650;2023-12-28T12:19:24;37.25;;;5.43;;
37851;SDS011;23691;52.486;4.650;2023-12-28T12:21:54;43.20;;;5.97;;
37851;SDS011;23691;52.486;4.650;2023-12-28T12:24:21;43.78;;;6.28;;
37851;SDS011;23691;52.486;4.650;2023-12-28T12:26:47;36.92;;;5.65;;
37851;SDS011;23691;52.486;4.650;2023-12-28T12:29:15;44.10;;;6.22;;
37851;SDS011;23691;52.486;4.650;2023-12-28T12:31:46;39.13;;;6.47;;
37851;SDS011;23691;52.486;4.650;2023-12-28T12:34:16;38.08;;;6.43;;
37851;SDS011;23691;52.486;4.650;2023-12-28T12:36:42;46.25;;;6.63;;
37851;SDS011;23691;52.486;4.650;2023-12-28T12:39:09;42.45;;;6.43;;
37851;SDS011;23691;52.486;4.650;2023-12-28T12:41:36;40.80;;;6.43;;
37851;SDS011;23691;52.486;4.650;2023-12-28T12:44:02;41.38;;;6.07;;
37851;SDS011;23691;52.486;4.650;2023-12-28T12:46:32;38.78;;;6.13;;
37851;SDS011;23691;52.486;4.650;2023-12-28T12:48:58;46.17;;;7.00;;
37851;SDS011;23691;52.486;4.650;2023-12-28T12:51:27;32.35;;;5.18;;
37851;SDS011;23691;52.486;4.650;2023-12-28T12:54:00;38.38;;;5.88;;
37851;SDS011;23691;52.486;4.650;2023-12-28T12:56:27;36.42;;;5.68;;
37851;SDS011;23691;52.486;4.650;2023-12-28T12:58:54;40.03;;;5.88;;
37851;SDS011;23691;52.486;4.650;2023-12-28T13:01:21;41.75;;;5.30;;
37851;SDS011;23691;52.486;4.650;2023-12-28T13:03:46;39.72;;;6.07;;
37851;SDS011;23691;52.486;4.650;2023-12-28T13:06:15;40.22;;;5.75;;
37851;SDS011;23691;52.486;4.650;2023-12-28T13:08:41;40.00;;;5.93;;
37851;SDS011;23691;52.486;4.650;2023-12-28T13:11:06;37.83;;;5.68;;
37851;SDS011;23691;52.486;4.650;2023-12-28T13:13:32;37.20;;;5.28;;
37851;SDS011;23691;52.486;4.650;2023-12-28T13:15:58;40.00;;;5.40;;
37851;SDS011;23691;52.486;4.650;2023-12-28T13:18:23;38.42;;;6.32;;
37851;SDS011;23691;52.486;4.650;2023-12-28T13:20:49;35.00;;;5.28;;
37851;SDS011;23691;52.486;4.650;2023-12-28T13:23:14;36.92;;;5.68;;
37851;SDS011;23691;52.486;4.650;2023-12-28T13:25:39;37.55;;;5.85;;
37851;SDS011;23691;52.486;4.650;2023-12-28T13:28:05;37.28;;;6.05;;
37851;SDS011;23691;52.486;4.650;2023-12-28T13:30:30;31.10;;;5.70;;
37851;SDS011;23691;52.486;4.650;2023-12-28T13:32:57;35.28;;;5.38;;
37851;SDS011;23691;52.486;4.650;2023-12-28T13:35:22;40.28;;;5.57;;
37851;SDS011;23691;52.486;4.650;2023-12-28T13:37:48;41.25;;;6.30;;
37851;SDS011;23691;52.486;4.650;2023-12-28T13:40:13;42.90;;;6.10;;
37851;SDS011;23691;52.486;4.650;2023-12-28T13:42:42;36.33;;;5.93;;
37851;SDS011;23691;52.486;4.650;2023-12-28T13:45:08;40.60;;;6.25;;
37851;SDS011;23691;52.486;4.650;2023-12-28T13:47:34;33.65;;;5.50;;
37851;SDS011;23691;52.486;4.650;2023-12-28T13:50:02;35.40;;;5.35;;
37851;SDS011;23691;52.486;4.650;2023-12-28T13:52:27;34.72;;;5.38;;
37851;SDS011;23691;52.486;4.650;2023-12-28T13:54:53;34.45;;;5.68;;
37851;SDS011;23691;52.486;4.650;2023-12-28T13:57:18;33.05;;;5.32;;
37851;SDS011;23691;52.486;4.650;2023-12-28T13:59:44;33.83;;;5.18;;
37851;SDS011;23691;52.486;4.650;2023-12-28T14:02:09;31.67;;;5.13;;
37851;SDS011;23691;52.486;4.650;2023-12-28T14:04:35;30.98;;;5.32;;
37851;SDS011;23691;52.486;4.650;2023-12-28T14:07:01;30.33;;;5.07;;
37851;SDS011;23691;52.486;4.650;2023-12-28T14:09:26;38.00;;;5.57;;
37851;SDS011;23691;52.486;4.650;2023-12-28T14:11:51;31.63;;;4.85;;
37851;SDS011;23691;52.486;4.650;2023-12-28T14:14:17;37.83;;;5.13;;
37851;SDS011;23691;52.486;4.650;2023-12-28T14:16:42;33.03;;;5.65;;
37851;SDS011;23691;52.486;4.650;2023-12-28T14:19:07;38.80;;;5.63;;
37851;SDS011;23691;52.486;4.650;2023-12-28T14:21:34;42.63;;;6.15;;
37851;SDS011;23691;52.486;4.650;2023-12-28T14:24:03;39.33;;;5.70;;
37851;SDS011;23691;52.486;4.650;2023-12-28T14:26:31;39.90;;;5.77;;
37851;SDS011;23691;52.486;4.650;2023-12-28T14:28:59;32.03;;;5.35;;
37851;SDS011;23691;52.486;4.650;2023-12-28T14:31:28;37.55;;;5.93;;
37851;SDS011;23691;52.486;4.650;2023-12-28T14:33:54;35.55;;;5.32;;
37851;SDS011;23691;52.486;4.650;2023-12-28T14:36:23;37.33;;;5.63;;